sensor_id;sensor_type;location;lat;lon;timestamp;P1;durP1;ratioP1;P2;durP2;ratioP2
13989;SDS011;7069;52.528;13.316;2022-12-24T00:01:49;10.20;;;8.43;;
13989;SDS011;7069;52.528;13.316;2022-12-24T00:04:15;10.40;;;8.10;;
13989;SDS011;7069;52.528;13.316;2022-12-24T00:06:42;10.73;;;8.60;;
13989;SDS011;7069;52.528;13.316;2022-12-24T00:09:08;11.83;;;8.17;;
13989;SDS011;7069;52.528;13.316;2022-12-24T00:11:35;10.67;;;7.90;;
13989;SDS011;7069;52.528;13.316;2022-12-24T00:14:01;11.10;;;7.93;;
13989;SDS011;7069;52.528;13.316;2022-12-24T00:16:29;12.13;;;8.77;;
13989;SDS011;7069;52.528;13.316;2022-12-24T00:18:56;11.97;;;9.07;;
13989;SDS011;7069;52.528;13.316;2022-12-24T00:21:23;14.60;;;8.80;;
13989;SDS011;7069;52.528;13.316;2022-12-24T00:23:49;12.57;;;9.03;;
13989;SDS011;7069;52.528;13.316;2022-12-24T00:26:16;11.53;;;7.93;;
13989;SDS011;7069;52.528;13.316;2022-12-24T00:28:42;11.80;;;8.73;;
13989;SDS011;7069;52.528;13.316;2022-12-24T00:31:09;13.57;;;8.57;;
13989;SDS011;7069;52.528;13.316;2022-12-24T00:33:38;10.40;;;8.37;;
13989;SDS011;7069;52.528;13.316;2022-12-24T00:36:05;12.90;;;8.53;;
13989;SDS011;7069;52.528;13.316;2022-12-24T00:38:33;14.43;;;8.00;;
13989;SDS011;7069;52.528;13.316;2022-12-24T00:41:00;11.60;;;9.07;;
13989;SDS011;7069;52.528;13.316;2022-12-24T00:43:27;11.47;;;7.67;;
13989;SDS011;7069;52.528;13.316;2022-12-24T00:45:55;8.17;;;6.90;;
13989;SDS011;7069;52.528;13.316;2022-12-24T00:48:23;9.20;;;7.23;;
13989;SDS011;7069;52.528;13.316;2022-12-24T00:50:51;8.53;;;6.67;;
13989;SDS011;7069;52.528;13.316;2022-12-24T00:53:17;7.70;;;6.83;;
13989;SDS011;7069;52.528;13.316;2022-12-24T00:55:44;9.93;;;8.07;;
13989;SDS011;7069;52.528;13.316;2022-12-24T00:58:11;10.07;;;7.07;;
13989;SDS011;7069;52.528;13.316;2022-12-24T01:00:38;8.23;;;6.90;;
13989;SDS011;7069;52.528;13.316;2022-12-24T01:03:04;11.97;;;7.43;;
13989;SDS011;7069;52.528;13.316;2022-12-24T01:05:31;12.37;;;6.83;;
13989;SDS011;7069;52.528;13.316;2022-12-24T01:07:59;9.83;;;7.23;;
13989;SDS011;7069;52.528;13.316;2022-12-24T01:10:26;9.20;;;6.73;;
13989;SDS011;7069;52.528;13.316;2022-12-24T01:12:53;9.77;;;7.47;;
13989;SDS011;7069;52.528;13.316;2022-12-24T01:15:19;12.17;;;7.20;;
13989;SDS011;7069;52.528;13.316;2022-12-24T01:17:46;11.07;;;7.63;;
13989;SDS011;7069;52.528;13.316;2022-12-24T01:20:14;9.40;;;7.90;;
13989;SDS011;7069;52.528;13.316;2022-12-24T01:22:42;10.53;;;7.40;;
13989;SDS011;7069;52.528;13.316;2022-12-24T01:25:10;11.20;;;7.53;;
13989;SDS011;7069;52.528;13.316;2022-12-24T01:27:37;9.23;;;7.53;;
13989;SDS011;7069;52.528;13.316;2022-12-24T01:30:05;11.63;;;8.37;;
13989;SDS011;7069;52.528;13.316;2022-12-24T01:32:33;11.43;;;8.37;;
13989;SDS011;7069;52.528;13.316;2022-12-24T01:35:00;10.47;;;8.00;;
13989;SDS011;7069;52.528;13.316;2022-12-24T01:37:27;8.47;;;7.27;;
13989;SDS011;7069;52.528;13.316;2022-12-24T01:39:54;9.43;;;7.40;;
13989;SDS011;7069;52.528;13.316;2022-12-24T01:42:44;9.30;;;7.40;;
13989;SDS011;7069;52.528;13.316;2022-12-24T01:45:37;12.20;;;8.03;;
13989;SDS011;7069;52.528;13.316;2022-12-24T01:48:14;8.93;;;7.63;;
13989;SDS011;7069;52.528;13.316;2022-12-24T01:50:44;9.03;;;7.33;;
13989;SDS011;7069;52.528;13.316;2022-12-24T01:53:12;11.13;;;7.30;;
13989;SDS011;7069;52.528;13.316;2022-12-24T01:55:39;8.83;;;7.93;;
13989;SDS011;7069;52.528;13.316;2022-12-24T01:58:08;10.00;;;8.97;;
13989;SDS011;7069;52.528;13.316;2022-12-24T02:00:36;11.97;;;8.23;;
13989;SDS011;7069;52.528;13.316;2022-12-24T02:03:03;13.13;;;8.70;;
13989;SDS011;7069;52.528;13.316;2022-12-24T02:05:30;10.20;;;8.50;;
13989;SDS011;7069;52.528;13.316;2022-12-24T02:08:00;9.67;;;7.63;;
13989;SDS011;7069;52.528;13.316;2022-12-24T02:10:29;7.60;;;6.60;;
13989;SDS011;7069;52.528;13.316;2022-12-24T02:12:56;11.93;;;8.57;;
13989;SDS011;7069;52.528;13.316;2022-12-24T02:15:25;12.17;;;8.97;;
13989;SDS011;7069;52.528;13.316;2022-12-24T02:17:56;11.50;;;8.13;;
13989;SDS011;7069;52.528;13.316;2022-12-24T02:23:51;9.43;;;8.13;;
13989;SDS011;7069;52.528;13.316;2022-12-24T02:26:32;10.60;;;8.30;;
13989;SDS011;7069;52.528;13.316;2022-12-24T02:29:18;11.20;;;9.50;;
13989;SDS011;7069;52.528;13.316;2022-12-24T02:31:55;12.27;;;9.03;;
13989;SDS011;7069;52.528;13.316;2022-12-24T02:34:27;10.97;;;7.30;;
13989;SDS011;7069;52.528;13.316;2022-12-24T02:36:57;10.27;;;8.00;;
13989;SDS011;7069;52.528;13.316;2022-12-24T02:39:26;10.30;;;7.67;;
13989;SDS011;7069;52.528;13.316;2022-12-24T02:41:55;12.87;;;8.27;;
13989;SDS011;7069;52.528;13.316;2022-12-24T02:44:34;10.40;;;8.13;;
13989;SDS011;7069;52.528;13.316;2022-12-24T02:47:04;11.33;;;8.03;;
13989;SDS011;7069;52.528;13.316;2022-12-24T02:49:32;11.77;;;7.93;;
13989;SDS011;7069;52.528;13.316;2022-12-24T02:52:00;9.00;;;6.83;;
13989;SDS011;7069;52.528;13.316;2022-12-24T02:54:27;11.23;;;8.53;;
13989;SDS011;7069;52.528;13.316;2022-12-24T02:56:58;12.40;;;8.73;;
13989;SDS011;7069;52.528;13.316;2022-12-24T02:59:39;11.77;;;8.53;;
13989;SDS011;7069;52.528;13.316;2022-12-24T03:02:17;10.87;;;8.27;;
13989;SDS011;7069;52.528;13.316;2022-12-24T03:04:51;13.63;;;8.80;;
13989;SDS011;7069;52.528;13.316;2022-12-24T03:07:26;9.80;;;8.27;;
13989;SDS011;7069;52.528;13.316;2022-12-24T03:10:00;11.80;;;8.33;;
13989;SDS011;7069;52.528;13.316;2022-12-24T03:12:32;13.07;;;9.50;;
13989;SDS011;7069;52.528;13.316;2022-12-24T03:15:02;9.13;;;7.80;;
13989;SDS011;7069;52.528;13.316;2022-12-24T03:17:32;14.20;;;9.70;;
13989;SDS011;7069;52.528;13.316;2022-12-24T03:20:00;10.67;;;9.57;;
13989;SDS011;7069;52.528;13.316;2022-12-24T03:22:27;8.90;;;7.27;;
13989;SDS011;7069;52.528;13.316;2022-12-24T03:24:55;17.93;;;8.37;;
13989;SDS011;7069;52.528;13.316;2022-12-24T03:27:24;10.00;;;8.40;;
13989;SDS011;7069;52.528;13.316;2022-12-24T03:29:51;15.97;;;9.10;;
13989;SDS011;7069;52.528;13.316;2022-12-24T03:32:22;9.30;;;8.30;;
13989;SDS011;7069;52.528;13.316;2022-12-24T03:34:51;10.80;;;9.33;;
13989;SDS011;7069;52.528;13.316;2022-12-24T03:37:18;13.70;;;8.97;;
13989;SDS011;7069;52.528;13.316;2022-12-24T03:39:45;12.53;;;9.97;;
13989;SDS011;7069;52.528;13.316;2022-12-24T03:42:11;14.07;;;8.63;;
13989;SDS011;7069;52.528;13.316;2022-12-24T03:44:38;11.70;;;9.37;;
13989;SDS011;7069;52.528;13.316;2022-12-24T03:47:05;12.60;;;9.53;;
13989;SDS011;7069;52.528;13.316;2022-12-24T03:49:32;11.30;;;8.80;;
13989;SDS011;7069;52.528;13.316;2022-12-24T03:52:01;8.80;;;7.40;;
13989;SDS011;7069;52.528;13.316;2022-12-24T03:54:28;10.57;;;8.77;;
13989;SDS011;7069;52.528;13.316;2022-12-24T03:56:55;12.20;;;8.23;;
13989;SDS011;7069;52.528;13.316;2022-12-24T03:59:22;12.20;;;9.37;;
13989;SDS011;7069;52.528;13.316;2022-12-24T04:01:49;11.43;;;8.30;;
13989;SDS011;7069;52.528;13.316;2022-12-24T04:04:16;11.77;;;8.23;;
13989;SDS011;7069;52.528;13.316;2022-12-24T04:06:42;13.13;;;8.63;;
13989;SDS011;7069;52.528;13.316;2022-12-24T04:09:10;12.40;;;9.30;;
13989;SDS011;7069;52.528;13.316;2022-12-24T04:11:37;12.17;;;8.47;;
13989;SDS011;7069;52.528;13.316;2022-12-24T04:14:03;9.60;;;7.67;;
13989;SDS011;7069;52.528;13.316;2022-12-24T04:16:30;9.43;;;7.57;;
13989;SDS011;7069;52.528;13.316;2022-12-24T04:18:56;9.63;;;8.23;;
13989;SDS011;7069;52.528;13.316;2022-12-24T04:21:23;10.63;;;7.80;;
13989;SDS011;7069;52.528;13.316;2022-12-24T04:23:50;12.90;;;8.37;;
13989;SDS011;7069;52.528;13.316;2022-12-24T04:26:17;9.87;;;7.67;;
13989;SDS011;7069;52.528;13.316;2022-12-24T04:28:44;9.93;;;7.50;;
13989;SDS011;7069;52.528;13.316;2022-12-24T04:31:11;9.83;;;7.47;;
13989;SDS011;7069;52.528;13.316;2022-12-24T04:33:39;9.27;;;7.40;;
13989;SDS011;7069;52.528;13.316;2022-12-24T04:36:06;10.63;;;7.67;;
13989;SDS011;7069;52.528;13.316;2022-12-24T04:38:33;8.07;;;7.07;;
13989;SDS011;7069;52.528;13.316;2022-12-24T04:41:01;8.20;;;6.83;;
13989;SDS011;7069;52.528;13.316;2022-12-24T04:43:30;8.50;;;7.60;;
13989;SDS011;7069;52.528;13.316;2022-12-24T04:46:02;8.90;;;7.37;;
13989;SDS011;7069;52.528;13.316;2022-12-24T04:48:30;8.20;;;6.43;;
13989;SDS011;7069;52.528;13.316;2022-12-24T04:50:56;10.20;;;8.33;;
13989;SDS011;7069;52.528;13.316;2022-12-24T04:53:23;9.07;;;7.33;;
13989;SDS011;7069;52.528;13.316;2022-12-24T04:55:50;11.23;;;7.13;;
13989;SDS011;7069;52.528;13.316;2022-12-24T04:58:16;10.40;;;8.13;;
13989;SDS011;7069;52.528;13.316;2022-12-24T05:00:44;8.73;;;7.60;;
13989;SDS011;7069;52.528;13.316;2022-12-24T05:03:11;8.17;;;7.17;;
13989;SDS011;7069;52.528;13.316;2022-12-24T05:05:37;9.13;;;7.90;;
13989;SDS011;7069;52.528;13.316;2022-12-24T05:08:04;9.27;;;7.47;;
13989;SDS011;7069;52.528;13.316;2022-12-24T05:10:31;8.67;;;6.97;;
13989;SDS011;7069;52.528;13.316;2022-12-24T05:12:58;9.20;;;7.53;;
13989;SDS011;7069;52.528;13.316;2022-12-24T05:15:24;9.60;;;7.40;;
13989;SDS011;7069;52.528;13.316;2022-12-24T05:17:52;11.27;;;9.20;;
13989;SDS011;7069;52.528;13.316;2022-12-24T05:20:19;8.80;;;6.87;;
13989;SDS011;7069;52.528;13.316;2022-12-24T05:22:45;9.60;;;8.17;;
13989;SDS011;7069;52.528;13.316;2022-12-24T05:25:30;8.13;;;7.33;;
13989;SDS011;7069;52.528;13.316;2022-12-24T05:28:16;8.63;;;7.73;;
13989;SDS011;7069;52.528;13.316;2022-12-24T05:30:43;8.47;;;7.47;;
13989;SDS011;7069;52.528;13.316;2022-12-24T05:33:11;8.20;;;6.60;;
13989;SDS011;7069;52.528;13.316;2022-12-24T05:35:38;10.40;;;8.43;;
13989;SDS011;7069;52.528;13.316;2022-12-24T05:38:04;11.07;;;7.57;;
13989;SDS011;7069;52.528;13.316;2022-12-24T05:40:31;10.63;;;7.13;;
13989;SDS011;7069;52.528;13.316;2022-12-24T05:42:58;10.07;;;8.43;;
13989;SDS011;7069;52.528;13.316;2022-12-24T05:45:25;10.37;;;8.03;;
13989;SDS011;7069;52.528;13.316;2022-12-24T05:47:52;9.20;;;7.67;;
13989;SDS011;7069;52.528;13.316;2022-12-24T05:50:20;10.03;;;8.33;;
13989;SDS011;7069;52.528;13.316;2022-12-24T05:52:47;9.83;;;8.50;;
13989;SDS011;7069;52.528;13.316;2022-12-24T05:55:14;10.27;;;7.30;;
13989;SDS011;7069;52.528;13.316;2022-12-24T05:57:41;9.23;;;7.53;;
13989;SDS011;7069;52.528;13.316;2022-12-24T06:00:08;10.83;;;8.37;;
13989;SDS011;7069;52.528;13.316;2022-12-24T06:02:35;9.67;;;8.57;;
13989;SDS011;7069;52.528;13.316;2022-12-24T06:05:02;10.27;;;8.50;;
13989;SDS011;7069;52.528;13.316;2022-12-24T06:07:31;9.67;;;8.13;;
13989;SDS011;7069;52.528;13.316;2022-12-24T06:09:58;9.03;;;8.13;;
13989;SDS011;7069;52.528;13.316;2022-12-24T06:12:24;8.97;;;8.07;;
13989;SDS011;7069;52.528;13.316;2022-12-24T06:14:51;9.03;;;7.93;;
13989;SDS011;7069;52.528;13.316;2022-12-24T06:17:18;9.37;;;8.37;;
13989;SDS011;7069;52.528;13.316;2022-12-24T06:19:45;9.60;;;8.43;;
13989;SDS011;7069;52.528;13.316;2022-12-24T06:22:12;10.90;;;8.87;;
13989;SDS011;7069;52.528;13.316;2022-12-24T06:24:40;10.13;;;9.10;;
13989;SDS011;7069;52.528;13.316;2022-12-24T06:27:07;11.57;;;9.70;;
13989;SDS011;7069;52.528;13.316;2022-12-24T06:29:34;11.00;;;9.30;;
13989;SDS011;7069;52.528;13.316;2022-12-24T06:32:01;12.33;;;9.20;;
13989;SDS011;7069;52.528;13.316;2022-12-24T06:34:28;10.27;;;9.10;;
13989;SDS011;7069;52.528;13.316;2022-12-24T06:36:55;12.03;;;9.80;;
13989;SDS011;7069;52.528;13.316;2022-12-24T06:39:22;15.83;;;12.90;;
13989;SDS011;7069;52.528;13.316;2022-12-24T06:41:51;11.80;;;8.77;;
13989;SDS011;7069;52.528;13.316;2022-12-24T06:44:18;10.17;;;9.20;;
13989;SDS011;7069;52.528;13.316;2022-12-24T06:46:45;11.50;;;9.10;;
13989;SDS011;7069;52.528;13.316;2022-12-24T06:49:12;11.50;;;10.30;;
13989;SDS011;7069;52.528;13.316;2022-12-24T06:51:39;11.47;;;9.87;;
13989;SDS011;7069;52.528;13.316;2022-12-24T06:54:05;11.50;;;8.93;;
13989;SDS011;7069;52.528;13.316;2022-12-24T06:56:32;11.90;;;9.03;;
13989;SDS011;7069;52.528;13.316;2022-12-24T06:59:01;9.63;;;8.40;;
13989;SDS011;7069;52.528;13.316;2022-12-24T07:01:28;10.80;;;8.27;;
13989;SDS011;7069;52.528;13.316;2022-12-24T07:03:55;9.93;;;8.13;;
13989;SDS011;7069;52.528;13.316;2022-12-24T07:06:23;9.70;;;8.17;;
13989;SDS011;7069;52.528;13.316;2022-12-24T07:08:51;9.90;;;8.47;;
13989;SDS011;7069;52.528;13.316;2022-12-24T07:11:18;10.90;;;9.77;;
13989;SDS011;7069;52.528;13.316;2022-12-24T07:13:45;12.17;;;9.90;;
13989;SDS011;7069;52.528;13.316;2022-12-24T07:16:13;13.13;;;9.60;;
13989;SDS011;7069;52.528;13.316;2022-12-24T07:18:40;14.87;;;9.40;;
13989;SDS011;7069;52.528;13.316;2022-12-24T07:21:07;11.03;;;9.87;;
13989;SDS011;7069;52.528;13.316;2022-12-24T07:23:34;11.93;;;9.33;;
13989;SDS011;7069;52.528;13.316;2022-12-24T07:26:02;14.27;;;9.60;;
13989;SDS011;7069;52.528;13.316;2022-12-24T07:28:30;9.17;;;8.10;;
13989;SDS011;7069;52.528;13.316;2022-12-24T07:30:57;10.47;;;8.90;;
13989;SDS011;7069;52.528;13.316;2022-12-24T07:33:26;10.67;;;8.57;;
13989;SDS011;7069;52.528;13.316;2022-12-24T07:35:57;9.90;;;8.47;;
13989;SDS011;7069;52.528;13.316;2022-12-24T07:38:25;9.40;;;7.87;;
13989;SDS011;7069;52.528;13.316;2022-12-24T07:40:52;8.87;;;7.87;;
13989;SDS011;7069;52.528;13.316;2022-12-24T07:43:20;9.90;;;8.37;;
13989;SDS011;7069;52.528;13.316;2022-12-24T07:45:48;9.97;;;8.37;;
13989;SDS011;7069;52.528;13.316;2022-12-24T07:48:14;10.73;;;8.47;;
13989;SDS011;7069;52.528;13.316;2022-12-24T07:50:43;9.93;;;8.23;;
13989;SDS011;7069;52.528;13.316;2022-12-24T07:53:10;10.93;;;8.73;;
13989;SDS011;7069;52.528;13.316;2022-12-24T07:55:36;11.43;;;9.53;;
13989;SDS011;7069;52.528;13.316;2022-12-24T07:58:04;11.93;;;10.77;;
13989;SDS011;7069;52.528;13.316;2022-12-24T08:00:31;10.40;;;7.87;;
13989;SDS011;7069;52.528;13.316;2022-12-24T08:02:58;10.13;;;8.83;;
13989;SDS011;7069;52.528;13.316;2022-12-24T08:05:25;10.83;;;8.97;;
13989;SDS011;7069;52.528;13.316;2022-12-24T08:07:54;12.43;;;8.93;;
13989;SDS011;7069;52.528;13.316;2022-12-24T08:10:21;11.43;;;8.80;;
13989;SDS011;7069;52.528;13.316;2022-12-24T08:12:47;10.33;;;8.30;;
13989;SDS011;7069;52.528;13.316;2022-12-24T08:15:15;10.37;;;8.10;;
13989;SDS011;7069;52.528;13.316;2022-12-24T08:17:42;9.30;;;8.03;;
13989;SDS011;7069;52.528;13.316;2022-12-24T08:20:09;12.07;;;9.67;;
13989;SDS011;7069;52.528;13.316;2022-12-24T08:22:36;11.87;;;8.30;;
13989;SDS011;7069;52.528;13.316;2022-12-24T08:25:05;10.10;;;7.87;;
13989;SDS011;7069;52.528;13.316;2022-12-24T08:27:33;9.83;;;8.83;;
13989;SDS011;7069;52.528;13.316;2022-12-24T08:29:59;14.67;;;10.13;;
13989;SDS011;7069;52.528;13.316;2022-12-24T08:32:26;9.60;;;8.00;;
13989;SDS011;7069;52.528;13.316;2022-12-24T08:34:53;14.80;;;10.60;;
13989;SDS011;7069;52.528;13.316;2022-12-24T08:37:20;10.83;;;8.60;;
13989;SDS011;7069;52.528;13.316;2022-12-24T08:39:47;12.73;;;9.63;;
13989;SDS011;7069;52.528;13.316;2022-12-24T08:42:15;11.73;;;8.67;;
13989;SDS011;7069;52.528;13.316;2022-12-24T08:44:42;13.23;;;10.33;;
13989;SDS011;7069;52.528;13.316;2022-12-24T08:47:09;15.47;;;10.40;;
13989;SDS011;7069;52.528;13.316;2022-12-24T08:49:36;9.87;;;8.57;;
13989;SDS011;7069;52.528;13.316;2022-12-24T08:52:03;11.00;;;9.43;;
13989;SDS011;7069;52.528;13.316;2022-12-24T08:54:31;12.80;;;9.43;;
13989;SDS011;7069;52.528;13.316;2022-12-24T08:56:57;9.63;;;7.93;;
13989;SDS011;7069;52.528;13.316;2022-12-24T08:59:26;11.87;;;8.33;;
13989;SDS011;7069;52.528;13.316;2022-12-24T09:01:52;13.27;;;9.97;;
13989;SDS011;7069;52.528;13.316;2022-12-24T09:04:19;12.90;;;8.63;;
13989;SDS011;7069;52.528;13.316;2022-12-24T09:06:46;11.97;;;8.83;;
13989;SDS011;7069;52.528;13.316;2022-12-24T09:09:13;10.27;;;8.67;;
13989;SDS011;7069;52.528;13.316;2022-12-24T09:11:40;12.97;;;8.30;;
13989;SDS011;7069;52.528;13.316;2022-12-24T09:14:07;9.17;;;8.07;;
13989;SDS011;7069;52.528;13.316;2022-12-24T09:16:36;10.00;;;8.93;;
13989;SDS011;7069;52.528;13.316;2022-12-24T09:19:03;11.00;;;9.80;;
13989;SDS011;7069;52.528;13.316;2022-12-24T09:21:30;13.93;;;11.10;;
13989;SDS011;7069;52.528;13.316;2022-12-24T09:23:57;13.17;;;10.07;;
13989;SDS011;7069;52.528;13.316;2022-12-24T09:26:25;13.50;;;9.33;;
13989;SDS011;7069;52.528;13.316;2022-12-24T09:28:55;12.10;;;9.83;;
13989;SDS011;7069;52.528;13.316;2022-12-24T09:31:22;14.37;;;10.20;;
13989;SDS011;7069;52.528;13.316;2022-12-24T09:33:51;11.90;;;8.90;;
13989;SDS011;7069;52.528;13.316;2022-12-24T09:36:18;13.13;;;10.10;;
13989;SDS011;7069;52.528;13.316;2022-12-24T09:38:45;12.73;;;10.33;;
13989;SDS011;7069;52.528;13.316;2022-12-24T09:41:14;12.50;;;10.53;;
13989;SDS011;7069;52.528;13.316;2022-12-24T09:43:44;12.40;;;9.43;;
13989;SDS011;7069;52.528;13.316;2022-12-24T09:46:15;13.23;;;9.57;;
13989;SDS011;7069;52.528;13.316;2022-12-24T09:48:46;13.83;;;10.17;;
13989;SDS011;7069;52.528;13.316;2022-12-24T09:51:17;14.27;;;10.30;;
13989;SDS011;7069;52.528;13.316;2022-12-24T09:53:48;11.37;;;9.87;;
13989;SDS011;7069;52.528;13.316;2022-12-24T09:56:18;12.17;;;9.30;;
13989;SDS011;7069;52.528;13.316;2022-12-24T09:58:47;14.27;;;10.87;;
13989;SDS011;7069;52.528;13.316;2022-12-24T10:01:16;12.80;;;11.03;;
13989;SDS011;7069;52.528;13.316;2022-12-24T10:03:43;12.60;;;10.83;;
13989;SDS011;7069;52.528;13.316;2022-12-24T10:06:12;14.77;;;11.07;;
13989;SDS011;7069;52.528;13.316;2022-12-24T10:08:45;12.23;;;9.90;;
13989;SDS011;7069;52.528;13.316;2022-12-24T10:11:22;14.40;;;10.23;;
13989;SDS011;7069;52.528;13.316;2022-12-24T10:13:57;13.33;;;10.43;;
13989;SDS011;7069;52.528;13.316;2022-12-24T10:16:31;14.63;;;10.40;;
13989;SDS011;7069;52.528;13.316;2022-12-24T10:19:08;13.97;;;11.30;;
13989;SDS011;7069;52.528;13.316;2022-12-24T10:21:41;15.50;;;11.03;;
13989;SDS011;7069;52.528;13.316;2022-12-24T10:24:17;14.87;;;11.87;;
13989;SDS011;7069;52.528;13.316;2022-12-24T10:26:49;15.50;;;11.33;;
13989;SDS011;7069;52.528;13.316;2022-12-24T10:29:19;12.40;;;10.73;;
13989;SDS011;7069;52.528;13.316;2022-12-24T10:31:52;14.27;;;11.03;;
13989;SDS011;7069;52.528;13.316;2022-12-24T10:34:32;12.00;;;10.33;;
13989;SDS011;7069;52.528;13.316;2022-12-24T10:37:01;14.57;;;12.07;;
13989;SDS011;7069;52.528;13.316;2022-12-24T10:39:30;13.77;;;11.17;;
13989;SDS011;7069;52.528;13.316;2022-12-24T10:41:57;14.13;;;10.47;;
13989;SDS011;7069;52.528;13.316;2022-12-24T10:44:26;14.97;;;11.23;;
13989;SDS011;7069;52.528;13.316;2022-12-24T10:46:54;12.70;;;9.80;;
13989;SDS011;7069;52.528;13.316;2022-12-24T10:49:24;11.73;;;9.90;;
13989;SDS011;7069;52.528;13.316;2022-12-24T10:51:56;11.93;;;10.07;;
13989;SDS011;7069;52.528;13.316;2022-12-24T10:54:26;14.67;;;10.83;;
13989;SDS011;7069;52.528;13.316;2022-12-24T10:57:00;12.23;;;10.30;;
13989;SDS011;7069;52.528;13.316;2022-12-24T10:59:28;13.63;;;11.80;;
13989;SDS011;7069;52.528;13.316;2022-12-24T11:01:57;15.30;;;10.30;;
13989;SDS011;7069;52.528;13.316;2022-12-24T11:04:25;11.53;;;9.10;;
13989;SDS011;7069;52.528;13.316;2022-12-24T11:06:53;10.67;;;9.57;;
13989;SDS011;7069;52.528;13.316;2022-12-24T11:09:21;9.63;;;8.63;;
13989;SDS011;7069;52.528;13.316;2022-12-24T11:11:50;10.70;;;8.87;;
13989;SDS011;7069;52.528;13.316;2022-12-24T11:14:18;10.90;;;9.27;;
13989;SDS011;7069;52.528;13.316;2022-12-24T11:16:47;10.57;;;8.30;;
13989;SDS011;7069;52.528;13.316;2022-12-24T11:19:17;12.23;;;9.90;;
13989;SDS011;7069;52.528;13.316;2022-12-24T11:21:45;15.20;;;10.33;;
13989;SDS011;7069;52.528;13.316;2022-12-24T11:24:19;10.47;;;8.67;;
13989;SDS011;7069;52.528;13.316;2022-12-24T11:26:50;11.43;;;9.87;;
13989;SDS011;7069;52.528;13.316;2022-12-24T11:29:20;10.97;;;8.20;;
13989;SDS011;7069;52.528;13.316;2022-12-24T11:31:49;10.63;;;8.30;;
13989;SDS011;7069;52.528;13.316;2022-12-24T11:34:20;10.43;;;8.27;;
13989;SDS011;7069;52.528;13.316;2022-12-24T11:36:49;10.20;;;8.83;;
13989;SDS011;7069;52.528;13.316;2022-12-24T11:39:17;10.53;;;8.70;;
13989;SDS011;7069;52.528;13.316;2022-12-24T11:41:45;11.67;;;9.77;;
13989;SDS011;7069;52.528;13.316;2022-12-24T11:44:12;12.40;;;10.23;;
13989;SDS011;7069;52.528;13.316;2022-12-24T11:46:41;10.73;;;8.53;;
13989;SDS011;7069;52.528;13.316;2022-12-24T11:49:20;12.20;;;9.47;;
13989;SDS011;7069;52.528;13.316;2022-12-24T11:52:00;11.17;;;9.03;;
13989;SDS011;7069;52.528;13.316;2022-12-24T11:54:30;9.17;;;8.13;;
13989;SDS011;7069;52.528;13.316;2022-12-24T11:56:59;11.57;;;9.33;;
13989;SDS011;7069;52.528;13.316;2022-12-24T11:59:27;13.20;;;9.20;;
13989;SDS011;7069;52.528;13.316;2022-12-24T12:01:59;11.20;;;9.13;;
13989;SDS011;7069;52.528;13.316;2022-12-24T12:04:29;11.50;;;8.07;;
13989;SDS011;7069;52.528;13.316;2022-12-24T12:06:59;9.37;;;7.67;;
13989;SDS011;7069;52.528;13.316;2022-12-24T12:09:29;10.47;;;8.27;;
13989;SDS011;7069;52.528;13.316;2022-12-24T12:11:59;7.13;;;6.43;;
13989;SDS011;7069;52.528;13.316;2022-12-24T12:14:29;10.80;;;7.07;;
13989;SDS011;7069;52.528;13.316;2022-12-24T12:17:00;10.10;;;7.30;;
13989;SDS011;7069;52.528;13.316;2022-12-24T12:19:30;7.70;;;6.87;;
13989;SDS011;7069;52.528;13.316;2022-12-24T12:22:02;7.10;;;6.50;;
13989;SDS011;7069;52.528;13.316;2022-12-24T12:24:33;7.20;;;6.40;;
13989;SDS011;7069;52.528;13.316;2022-12-24T12:27:03;7.73;;;6.73;;
13989;SDS011;7069;52.528;13.316;2022-12-24T12:29:34;8.97;;;6.87;;
13989;SDS011;7069;52.528;13.316;2022-12-24T12:32:05;7.13;;;6.03;;
13989;SDS011;7069;52.528;13.316;2022-12-24T12:34:34;7.63;;;5.93;;
13989;SDS011;7069;52.528;13.316;2022-12-24T12:37:04;9.27;;;5.93;;
13989;SDS011;7069;52.528;13.316;2022-12-24T12:39:33;9.00;;;6.07;;
13989;SDS011;7069;52.528;13.316;2022-12-24T12:42:02;7.17;;;5.50;;
13989;SDS011;7069;52.528;13.316;2022-12-24T12:44:44;6.47;;;5.33;;
13989;SDS011;7069;52.528;13.316;2022-12-24T12:47:25;6.37;;;5.37;;
13989;SDS011;7069;52.528;13.316;2022-12-24T12:50:02;7.33;;;6.33;;
13989;SDS011;7069;52.528;13.316;2022-12-24T12:52:39;7.80;;;5.60;;
13989;SDS011;7069;52.528;13.316;2022-12-24T12:55:17;7.77;;;5.77;;
13989;SDS011;7069;52.528;13.316;2022-12-24T12:57:49;8.07;;;6.33;;
13989;SDS011;7069;52.528;13.316;2022-12-24T13:00:17;8.20;;;6.30;;
13989;SDS011;7069;52.528;13.316;2022-12-24T13:02:54;7.83;;;5.53;;
13989;SDS011;7069;52.528;13.316;2022-12-24T13:08:30;5.87;;;5.27;;
13989;SDS011;7069;52.528;13.316;2022-12-24T13:11:29;8.00;;;4.90;;
13989;SDS011;7069;52.528;13.316;2022-12-24T13:14:23;15.47;;;8.83;;
13989;SDS011;7069;52.528;13.316;2022-12-24T13:17:05;10.00;;;6.57;;
13989;SDS011;7069;52.528;13.316;2022-12-24T13:19:49;8.23;;;5.43;;
13989;SDS011;7069;52.528;13.316;2022-12-24T13:22:27;6.83;;;5.43;;
13989;SDS011;7069;52.528;13.316;2022-12-24T13:24:54;10.30;;;5.60;;
13989;SDS011;7069;52.528;13.316;2022-12-24T13:27:22;8.10;;;4.60;;
13989;SDS011;7069;52.528;13.316;2022-12-24T13:29:52;8.00;;;4.87;;
13989;SDS011;7069;52.528;13.316;2022-12-24T13:32:37;9.00;;;5.03;;
13989;SDS011;7069;52.528;13.316;2022-12-24T13:37:54;8.07;;;4.70;;
13989;SDS011;7069;52.528;13.316;2022-12-24T13:41:35;15.13;;;6.03;;
13989;SDS011;7069;52.528;13.316;2022-12-24T13:44:16;7.60;;;4.00;;
13989;SDS011;7069;52.528;13.316;2022-12-24T13:46:45;16.80;;;10.50;;
13989;SDS011;7069;52.528;13.316;2022-12-24T13:49:24;8.47;;;5.57;;
13989;SDS011;7069;52.528;13.316;2022-12-24T13:52:05;13.07;;;5.53;;
13989;SDS011;7069;52.528;13.316;2022-12-24T13:54:44;13.07;;;4.93;;
13989;SDS011;7069;52.528;13.316;2022-12-24T13:57:22;7.13;;;5.30;;
13989;SDS011;7069;52.528;13.316;2022-12-24T13:59:56;17.13;;;5.03;;
13989;SDS011;7069;52.528;13.316;2022-12-24T14:02:24;9.97;;;4.60;;
13989;SDS011;7069;52.528;13.316;2022-12-24T14:04:54;8.07;;;5.00;;
13989;SDS011;7069;52.528;13.316;2022-12-24T14:07:27;12.77;;;4.73;;
13989;SDS011;7069;52.528;13.316;2022-12-24T14:09:54;11.63;;;5.17;;
13989;SDS011;7069;52.528;13.316;2022-12-24T14:12:31;9.47;;;4.77;;
13989;SDS011;7069;52.528;13.316;2022-12-24T14:18:17;12.03;;;3.77;;
13989;SDS011;7069;52.528;13.316;2022-12-24T14:20:47;11.13;;;4.10;;
13989;SDS011;7069;52.528;13.316;2022-12-24T14:23:16;14.07;;;4.13;;
13989;SDS011;7069;52.528;13.316;2022-12-24T14:25:49;14.33;;;4.30;;
13989;SDS011;7069;52.528;13.316;2022-12-24T14:28:16;11.00;;;4.03;;
13989;SDS011;7069;52.528;13.316;2022-12-24T14:30:46;11.67;;;3.97;;
13989;SDS011;7069;52.528;13.316;2022-12-24T14:33:28;12.37;;;4.83;;
13989;SDS011;7069;52.528;13.316;2022-12-24T14:35:56;12.63;;;5.03;;
13989;SDS011;7069;52.528;13.316;2022-12-24T14:38:25;14.07;;;4.73;;
13989;SDS011;7069;52.528;13.316;2022-12-24T14:40:55;17.43;;;6.23;;
13989;SDS011;7069;52.528;13.316;2022-12-24T14:43:28;14.33;;;5.40;;
13989;SDS011;7069;52.528;13.316;2022-12-24T14:46:06;12.80;;;5.37;;
13989;SDS011;7069;52.528;13.316;2022-12-24T14:48:37;11.53;;;4.40;;
13989;SDS011;7069;52.528;13.316;2022-12-24T14:51:09;14.17;;;5.43;;
13989;SDS011;7069;52.528;13.316;2022-12-24T14:53:45;14.93;;;5.73;;
13989;SDS011;7069;52.528;13.316;2022-12-24T14:56:25;16.17;;;5.40;;
13989;SDS011;7069;52.528;13.316;2022-12-24T14:58:52;12.23;;;5.17;;
13989;SDS011;7069;52.528;13.316;2022-12-24T15:01:21;21.43;;;5.67;;
13989;SDS011;7069;52.528;13.316;2022-12-24T15:03:59;10.73;;;5.20;;
13989;SDS011;7069;52.528;13.316;2022-12-24T15:06:27;13.87;;;4.93;;